Time;durP1;ratioP1;P1;durP2;ratioP2;P2;SDS_P1;SDS_P2;PMS_P1;PMS_P2;Temp;Humidity;BMP_temperature;BMP_pressure;BME280_temperature;BME280_humidity;BME280_pressure;Samples;Min_cycle;Max_cycle;Signal;HPM_P1;HPM_P2
2022/07/14 00:02:15;;;;;;;;;16.33;16.33;;;;;30.40;31.24;101430.28;4955775;28;47246;-74
2022/07/14 00:04:41;;;;;;;;;14.33;14.33;;;;;30.35;31.21;101429.69;4957416;28;45402;-74
2022/07/14 00:07:06;;;;;;;;;17.00;16.00;;;;;30.34;31.66;101435.22;4957419;28;45426;-74
2022/07/14 00:09:31;;;;;;;;;15.00;13.00;;;;;30.20;30.86;101422.28;4956012;28;45571;-74
2022/07/14 00:11:57;;;;;;;;;13.67;12.33;;;;;30.21;30.29;101426.78;4957000;28;45393;-74
2022/07/14 00:14:22;;;;;;;;;11.67;11.67;;;;;30.27;30.02;101437.41;4957471;28;45414;-74
2022/07/14 00:16:47;;;;;;;;;15.00;12.33;;;;;30.20;30.31;101425.03;4957043;28;45983;-74
2022/07/14 00:19:13;;;;;;;;;14.33;13.67;;;;;30.33;31.11;101437.06;4957127;28;45469;-73
2022/07/14 00:21:38;;;;;;;;;19.67;16.67;;;;;30.29;31.69;101430.00;4957024;28;45542;-74
2022/07/14 00:24:04;;;;;;;;;14.33;14.33;;;;;30.25;31.75;101418.34;4956768;28;45559;-74
2022/07/14 00:26:30;;;;;;;;;13.00;12.00;;;;;30.28;31.24;101433.69;4957146;28;45409;-74
2022/07/14 00:28:55;;;;;;;;;10.33;9.33;;;;;30.20;30.62;101422.28;4957008;28;45566;-74
2022/07/14 00:31:20;;;;;;;;;13.00;12.00;;;;;30.24;30.92;101421.16;4956830;28;45388;-74
2022/07/14 00:33:46;;;;;;;;;11.67;11.67;;;;;30.23;31.23;101405.69;4957064;28;45495;-73
2022/07/14 00:36:11;;;;;;;;;14.67;14.33;;;;;30.28;31.95;101412.69;4955740;28;45552;-74
2022/07/14 00:38:37;;;;;;;;;10.00;10.00;;;;;30.26;31.70;101402.78;4957040;28;45423;-74
2022/07/14 00:41:02;;;;;;;;;14.33;12.67;;;;;30.23;32.08;101386.53;4955447;28;47037;-74
2022/07/14 00:43:27;;;;;;;;;10.00;10.00;;;;;30.21;31.43;101381.16;4955392;28;45669;-73
2022/07/14 00:45:53;;;;;;;;;9.00;8.00;;;;;30.15;31.00;101377.84;4955523;28;45414;-74
2022/07/14 00:48:19;;;;;;;;;9.00;8.33;;;;;30.22;31.54;101376.56;4956778;28;45481;-73
2022/07/14 00:50:45;;;;;;;;;11.00;9.00;;;;;30.17;31.73;101359.47;4956441;28;46002;-74
2022/07/14 00:53:11;;;;;;;;;8.00;6.00;;;;;30.26;31.41;101375.41;4956519;28;45271;-74
2022/07/14 00:55:39;;;;;;;;;9.00;8.00;;;;;30.17;31.45;101390.50;4955502;28;45464;-74
2022/07/14 00:58:05;;;;;;;;;9.00;9.00;;;;;30.09;31.53;101385.41;4956129;28;45520;-74
2022/07/14 01:00:31;;;;;;;;;11.00;10.33;;;;;30.16;31.33;101396.06;4956717;28;45339;-74
2022/07/14 01:02:56;;;;;;;;;16.00;12.67;;;;;30.08;31.58;101378.19;4956356;28;45322;-73
2022/07/14 01:05:22;;;;;;;;;11.33;11.33;;;;;30.07;31.75;101373.69;4956747;28;45689;-74
2022/07/14 01:07:48;;;;;;;;;15.00;14.67;;;;;30.16;31.37;101382.38;4956644;28;45496;-74
2022/07/14 01:10:14;;;;;;;;;12.00;12.00;;;;;30.11;31.74;101383.50;4955047;28;47151;-74
2022/07/14 01:12:47;;;;;;;;;23.00;19.33;;;;;29.99;31.41;101369.59;4956255;28;45349;-74
2022/07/14 01:15:18;;;;;;;;;20.00;19.33;;;;;30.06;31.07;101396.53;4956455;28;45377;-74
2022/07/14 01:17:44;;;;;;;;;26.33;22.00;;;;;30.02;31.08;101403.13;4956459;28;45442;-73
2022/07/14 01:20:10;;;;;;;;;30.00;26.00;;;;;29.97;30.82;101394.25;4955965;28;46249;-74
2022/07/14 01:22:36;;;;;;;;;22.67;21.00;;;;;29.86;31.21;101391.22;4954836;28;45331;-74
2022/07/14 01:25:06;;;;;;;;;22.33;19.67;;;;;29.97;31.40;101405.22;4956136;28;45291;-74
2022/07/14 01:27:32;;;;;;;;;29.67;22.33;;;;;29.91;31.25;101392.72;4956093;28;45407;-74
2022/07/14 01:29:57;;;;;;;;;18.00;14.00;;;;;29.94;31.17;101402.63;4955901;28;46034;-74
2022/07/14 01:32:23;;;;;;;;;15.00;12.33;;;;;29.88;31.06;101394.75;4956337;28;45553;-74
2022/07/14 01:34:49;;;;;;;;;10.00;10.00;;;;;29.86;31.50;101404.88;4956363;28;45482;-73
2022/07/14 01:37:14;;;;;;;;;11.00;11.00;;;;;29.83;31.56;101399.53;4956068;28;45421;-74
2022/07/14 01:39:39;;;;;;;;;11.00;10.00;;;;;29.86;31.47;101414.00;4956269;28;45413;-74
2022/07/14 01:42:05;;;;;;;;;9.00;9.00;;;;;29.81;31.73;101412.44;4955732;28;45518;-74
2022/07/14 01:44:30;;;;;;;;;7.00;7.00;;;;;29.81;31.79;101426.09;4955212;28;45438;-73
2022/07/14 01:46:56;;;;;;;;;8.33;7.00;;;;;29.70;31.71;101394.69;4955997;28;45518;-74
2022/07/14 01:49:21;;;;;;;;;7.33;7.33;;;;;29.75;32.27;101409.03;4955825;28;46198;-73
2022/07/14 01:51:47;;;;;;;;;9.00;8.00;;;;;29.67;32.30;101404.94;4956202;28;45478;-73
2022/07/14 01:54:12;;;;;;;;;3.67;2.00;;;;;29.67;31.82;101404.94;4956106;28;45410;-74
2022/07/14 01:56:40;;;;;;;;;6.67;6.67;;;;;29.52;32.55;101387.44;4955731;28;45612;-73
2022/07/14 01:59:05;;;;;;;;;8.00;6.67;;;;;29.53;32.72;101401.03;4955542;28;46197;-73
2022/07/14 02:01:40;;;;;;;;;7.67;7.00;;;;;29.61;32.72;101417.06;4955953;28;45413;-74
2022/07/14 02:04:13;;;;;;;;;8.00;8.00;;;;;29.59;32.48;101399.84;4958144;28;45317;-74
2022/07/14 02:07:04;;;;;;;;;15.67;10.00;;;;;29.65;32.38;101410.47;4957940;28;45357;-74
2022/07/14 02:12:14;;;;;;;;;18.33;16.00;;;;;29.51;32.75;101382.97;4958627;28;45413;-73
2022/07/14 02:14:39;;;;;;;;;17.33;17.33;;;;;29.53;33.02;101386.50;4959288;28;45332;-74
2022/07/14 02:17:04;;;;;;;;;15.33;15.33;;;;;29.45;33.31;101377.78;4959104;28;45695;-74
2022/07/14 02:19:30;;;;;;;;;27.00;23.33;;;;;29.47;32.78;101371.28;4959030;28;45585;-74
2022/07/14 02:21:55;;;;;;;;;22.00;19.67;;;;;29.50;32.75;101394.84;4957418;28;45770;-74
2022/07/14 02:24:22;;;;;;;;;21.33;20.33;;;;;29.45;33.05;101388.72;4959022;28;45330;-74
2022/07/14 02:26:50;;;;;;;;;23.67;22.33;;;;;29.43;32.88;101381.47;4958751;28;45350;-74
2022/07/14 02:29:16;;;;;;;;;23.00;21.33;;;;;29.40;33.24;101375.28;4957303;28;46194;-74
2022/07/14 02:31:43;;;;;;;;;18.33;18.33;;;;;29.48;33.39;101385.81;4958966;28;45242;-73
2022/07/14 02:34:08;;;;;;;;;16.33;15.00;;;;;29.44;33.38;101371.44;4958621;28;45421;-73
2022/07/14 02:36:33;;;;;;;;;16.67;14.33;;;;;29.49;33.63;101373.94;4958706;28;45386;-74
2022/07/14 02:38:59;;;;;;;;;15.33;14.67;;;;;29.46;33.77;101379.56;4958637;28;46205;-74
2022/07/14 02:41:24;;;;;;;;;15.33;14.67;;;;;29.56;33.54;101397.25;4957079;28;45593;-74
2022/07/14 02:43:49;;;;;;;;;20.67;18.00;;;;;29.35;33.77;101361.88;4958958;28;45527;-74
2022/07/14 02:46:15;;;;;;;;;17.33;16.00;;;;;29.36;33.83;101371.81;4958564;28;45429;-74
2022/07/14 02:48:40;;;;;;;;;15.33;15.33;;;;;29.37;33.11;101376.34;4958481;28;45796;-73
2022/07/14 02:51:08;;;;;;;;;16.00;16.00;;;;;29.38;33.70;101372.66;4958502;28;45397;-73
2022/07/14 02:53:36;;;;;;;;;16.67;15.67;;;;;29.43;34.07;101369.66;4957366;28;45543;-73
2022/07/14 02:56:02;;;;;;;;;16.00;16.00;;;;;29.41;34.29;101374.34;4957919;28;45554;-73
2022/07/14 02:58:27;;;;;;;;;17.00;16.00;;;;;29.30;33.88;101369.41;4957107;28;47033;-73
2022/07/14 03:00:53;;;;;;;;;17.67;17.67;;;;;29.26;34.48;101368.66;4958251;28;45386;-73
2022/07/14 03:03:19;;;;;;;;;15.00;14.00;;;;;29.37;34.72;101381.78;4958494;28;45409;-74
2022/07/14 03:05:45;;;;;;;;;17.67;17.00;;;;;29.33;34.91;101361.03;4958536;28;45512;-73
2022/07/14 03:08:10;;;;;;;;;17.33;16.33;;;;;29.33;34.79;101369.25;4957944;28;45376;-74
2022/07/14 03:10:36;;;;;;;;;19.67;19.00;;;;;29.21;34.95;101359.78;4957777;28;45384;-74
2022/07/14 03:13:02;;;;;;;;;38.00;30.00;;;;;29.19;34.95;101358.09;4958495;28;45901;-74
2022/07/14 03:15:27;;;;;;;;;38.67;32.00;;;;;29.18;35.27;101359.03;4958272;28;45444;-73
2022/07/14 03:17:53;;;;;;;;;44.67;33.67;;;;;29.17;35.05;101360.00;4958003;28;46182;-74
2022/07/14 03:20:18;;;;;;;;;48.75;39.25;;;;;29.21;35.09;101347.97;4957976;28;45317;-74
2022/07/14 03:22:45;;;;;;;;;47.33;38.67;;;;;29.01;35.39;101329.84;4958074;28;45282;-74
2022/07/14 03:25:11;;;;;;;;;42.67;36.33;;;;;29.29;35.23;101366.75;4957847;28;45389;-75
2022/07/14 03:27:38;;;;;;;;;51.00;40.33;;;;;29.18;35.44;101359.03;4957788;28;46054;-74
2022/07/14 03:30:05;;;;;;;;;48.00;38.00;;;;;29.19;35.47;101375.34;4958025;28;45567;-74
2022/07/14 03:32:30;;;;;;;;;49.67;38.33;;;;;29.09;35.58;101374.94;4957981;28;45455;-73
2022/07/14 03:34:55;;;;;;;;;41.00;34.67;;;;;29.06;35.79;101375.09;4957815;28;45405;-73
2022/07/14 03:37:21;;;;;;;;;32.67;30.00;;;;;28.96;35.29;101367.41;4957621;28;48497;-74
2022/07/14 03:39:46;;;;;;;;;23.67;20.00;;;;;28.94;35.12;101372.06;4957718;28;45399;-73
2022/07/14 03:42:12;;;;;;;;;23.00;19.67;;;;;28.87;34.89;101368.75;4957739;28;45488;-74
2022/07/14 03:44:37;;;;;;;;;24.00;23.33;;;;;28.70;35.28;101353.16;4957938;28;45377;-73
2022/07/14 03:47:02;;;;;;;;;26.33;24.33;;;;;28.65;35.23;101366.16;4957567;28;46725;-73
2022/07/14 03:49:28;;;;;;;;;28.00;24.67;;;;;28.57;35.41;101348.25;4957786;28;45376;-74
2022/07/14 03:51:53;;;;;;;;;26.00;24.33;;;;;28.68;35.32;101377.81;4957860;28;45484;-73
2022/07/14 03:54:18;;;;;;;;;24.67;22.33;;;;;28.52;36.05;101341.25;4957111;28;45472;-74
2022/07/14 03:56:44;;;;;;;;;25.33;23.33;;;;;28.62;35.79;101345.38;4956087;28;46977;-74
2022/07/14 03:59:10;;;;;;;;;24.67;23.00;;;;;28.77;35.83;101360.09;4956103;28;45532;-74
2022/07/14 04:01:37;;;;;;;;;20.33;17.33;;;;;28.72;36.42;101363.06;4957721;28;45437;-74
2022/07/14 04:04:03;;;;;;;;;15.00;15.00;;;;;28.63;36.35;101357.16;4957380;28;45497;-74
2022/07/14 04:06:29;;;;;;;;;20.00;13.67;;;;;28.55;36.42;101368.38;4957255;28;45923;-74
2022/07/14 04:08:54;;;;;;;;;13.00;12.67;;;;;28.48;36.74;101370.53;4957220;28;45473;-73
2022/07/14 04:11:20;;;;;;;;;14.00;12.67;;;;;28.48;37.05;101353.25;4957331;28;45460;-73
2022/07/14 04:13:45;;;;;;;;;13.00;11.67;;;;;28.49;36.97;101360.50;4956700;28;45496;-69
2022/07/14 04:16:11;;;;;;;;;9.67;9.33;;;;;28.52;37.20;101372.16;4956853;28;45469;-69
2022/07/14 04:18:36;;;;;;;;;12.67;11.00;;;;;28.48;37.74;101369.63;4957013;28;45381;-68
